createdAt,value
2022-12-19T03:04:16.232Z,82.53
2022-12-19T04:04:15.809Z,82.10
2022-12-19T06:55:05.845Z,81.26
2022-12-19T06:57:32.955Z,81.35
2022-12-19T07:00:00.141Z,80.84
2022-12-19T07:02:30.322Z,81.07
2022-12-19T07:05:05.883Z,80.88
2022-12-19T07:07:33.219Z,80.89
2022-12-19T07:10:00.452Z,80.95
2022-12-19T07:12:27.717Z,80.82
2022-12-19T07:14:54.969Z,81.05
2022-12-19T07:17:23.553Z,80.92
2022-12-19T07:19:51.141Z,80.71
2022-12-19T07:22:18.405Z,80.75
2022-12-19T07:24:45.746Z,80.82
2022-12-19T07:27:12.939Z,80.75
2022-12-19T07:29:40.074Z,81.16
2022-12-19T07:32:07.279Z,81.21
2022-12-19T07:34:34.557Z,81.06
2022-12-19T07:37:01.760Z,80.81
2022-12-19T07:39:28.945Z,80.96
2022-12-19T07:41:56.124Z,80.57
2022-12-19T07:44:23.298Z,80.40
2022-12-19T07:46:50.393Z,80.27
2022-12-19T07:49:22.422Z,80.40
2022-12-19T07:51:50.007Z,80.15
2022-12-19T07:54:17.182Z,80.32
2022-12-19T07:56:44.289Z,80.67
2022-12-19T07:59:13.069Z,80.38
2022-12-19T08:01:40.400Z,80.63
2022-12-19T08:04:07.616Z,80.49
2022-12-19T08:06:40.832Z,80.79
2022-12-19T08:09:08.659Z,80.12
2022-12-19T08:11:35.815Z,80.23
2022-12-19T08:14:02.987Z,79.95
2022-12-19T08:16:30.746Z,79.85
2022-12-19T08:18:57.944Z,79.78
2022-12-19T08:21:25.393Z,79.99
2022-12-19T08:23:52.592Z,80.00
2022-12-19T08:26:25.119Z,79.50
2022-12-19T08:28:53.975Z,79.67
2022-12-19T08:31:22.066Z,79.24
2022-12-19T08:33:49.548Z,79.39
2022-12-19T08:36:20.993Z,79.34
2022-12-19T08:38:48.920Z,79.22
2022-12-19T08:41:16.835Z,79.42
2022-12-19T08:43:48.697Z,79.34
2022-12-19T08:46:17.645Z,79.31
2022-12-19T08:48:45.095Z,79.04
2022-12-19T08:51:13.541Z,79.16
2022-12-19T08:53:41.950Z,78.91
2022-12-19T08:56:20.020Z,78.46
2022-12-19T08:58:47.765Z,78.71
2022-12-19T09:01:19.134Z,78.31
2022-12-19T09:04:14.216Z,78.36
2022-12-19T09:06:34.722Z,78.10
2022-12-19T09:09:04.235Z,78.26
2022-12-19T09:11:31.457Z,78.24
2022-12-19T09:13:58.678Z,78.23
2022-12-19T09:16:27.528Z,78.16
2022-12-19T09:18:56.895Z,77.83
2022-12-19T09:21:27.388Z,77.80
2022-12-19T09:24:01.932Z,77.97
2022-12-19T09:26:32.893Z,77.96
2022-12-19T09:29:01.065Z,78.01
2022-12-19T09:31:29.530Z,78.23
2022-12-19T09:33:56.708Z,77.99
2022-12-19T09:36:24.852Z,77.80
2022-12-19T09:38:56.824Z,77.57
2022-12-19T09:41:31.618Z,77.51
2022-12-19T09:44:17.117Z,77.25
2022-12-19T09:46:44.864Z,77.09
2022-12-19T09:49:14.077Z,76.90
2022-12-19T09:51:49.486Z,77.09
2022-12-19T09:54:37.069Z,76.28
2022-12-19T09:57:18.323Z,76.58
2022-12-19T09:59:57.438Z,76.59
2022-12-19T10:02:46.540Z,76.21
2022-12-19T10:05:47.646Z,75.89
2022-12-19T10:08:26.371Z,76.41
2022-12-19T10:12:38.936Z,76.24
2022-12-19T10:14:15.261Z,75.53
2022-12-19T10:17:28.082Z,75.63
2022-12-19T10:20:18.075Z,75.42
2022-12-19T10:23:09.629Z,74.97
2022-12-19T10:25:55.254Z,75.27
2022-12-19T10:29:02.296Z,74.65
2022-12-19T10:31:42.407Z,74.64
2022-12-19T10:34:22.408Z,74.26
2022-12-19T10:37:27.082Z,74.33
2022-12-19T10:39:45.613Z,74.32
2022-12-19T10:42:22.768Z,74.04
2022-12-19T10:44:50.956Z,74.21
2022-12-19T10:47:18.111Z,74.35
2022-12-19T10:49:45.280Z,74.33
2022-12-19T10:52:13.393Z,73.61
2022-12-19T10:54:42.643Z,73.54
2022-12-19T10:57:24.556Z,72.90
2022-12-19T11:00:03.860Z,72.92
2022-12-19T11:02:35.873Z,73.21
2022-12-19T11:05:05.815Z,73.25
2022-12-19T11:07:33.102Z,72.20
2022-12-19T11:11:40.679Z,72.46
2022-12-19T11:16:25.161Z,72.22
2022-12-19T11:19:41.645Z,72.26
2022-12-19T11:28:56.996Z,72.88
2022-12-19T11:29:25.173Z,72.49
2022-12-19T11:29:54.652Z,73.49
2022-12-19T11:30:48.668Z,72.16
2022-12-19T11:33:18.969Z,74.00
2022-12-19T11:35:51.992Z,74.41
2022-12-19T11:38:29.556Z,74.51
2022-12-19T11:40:57.783Z,74.88
2022-12-19T11:43:54.163Z,75.45
2022-12-19T11:46:40.755Z,75.70
2022-12-19T11:49:13.859Z,76.26
2022-12-19T11:51:58.168Z,77.01
2022-12-19T11:54:57.747Z,77.34
2022-12-19T11:57:25.238Z,77.83
2022-12-19T11:59:53.868Z,79.10
2022-12-19T12:02:42.820Z,79.40
2022-12-19T12:05:24.356Z,80.45
2022-12-19T12:09:40.220Z,81.03
2022-12-19T12:16:16.114Z,81.20
2022-12-19T12:23:42.159Z,81.56
2022-12-19T12:29:13.034Z,82.38
2022-12-19T12:31:16.501Z,83.59
2022-12-19T12:31:38.991Z,84.86
2022-12-19T12:31:50.063Z,85.31
2022-12-19T12:31:56.045Z,84.24
2022-12-19T12:35:11.082Z,85.98
2022-12-19T12:41:56.734Z,89.32
2022-12-19T12:44:32.677Z,90.25
2022-12-19T12:47:22.322Z,91.09
2022-12-19T12:50:04.144Z,91.86
2022-12-19T12:52:38.373Z,91.91
2022-12-19T12:55:16.063Z,92.34
2022-12-19T12:57:43.275Z,93.17
2022-12-19T13:00:33.418Z,94.11
2022-12-19T13:03:07.418Z,94.99
2022-12-19T13:06:04.639Z,95.03
2022-12-19T13:08:38.190Z,95.87
2022-12-19T13:11:44.301Z,96.45
2022-12-19T13:14:37.067Z,98.27
2022-12-19T13:17:08.362Z,97.91
2022-12-19T13:19:38.746Z,98.05
2022-12-19T13:22:08.637Z,99.04
2022-12-19T13:24:41.652Z,100.00
2022-12-19T13:27:20.799Z,100.00
2022-12-19T13:29:59.856Z,100.00
2022-12-19T13:32:33.188Z,100.00
2022-12-19T13:35:27.845Z,100.00
2022-12-19T13:40:02.471Z,100.00
2022-12-19T13:40:43.066Z,100.00
2022-12-19T13:43:37.239Z,100.00
2022-12-19T13:46:07.424Z,100.00
2022-12-19T13:48:46.469Z,100.00
2022-12-19T13:51:14.136Z,100.00
2022-12-19T13:53:43.219Z,100.00
2022-12-19T13:56:18.087Z,100.00
2022-12-19T13:58:53.361Z,100.00
2022-12-19T14:01:28.939Z,100.00
2022-12-19T14:04:02.503Z,100.00
2022-12-19T14:06:43.831Z,100.00
2022-12-19T14:11:32.417Z,100.00
2022-12-19T14:13:48.786Z,100.00
2022-12-19T14:15:44.259Z,100.00
2022-12-19T14:18:44.158Z,100.00
2022-12-19T14:22:11.803Z,100.00
2022-12-19T14:24:23.325Z,100.00
2022-12-19T16:08:27.220Z,100.00
2022-12-19T19:29:35.324Z,100.00
2022-12-19T19:32:02.693Z,100.00
